sensor_id;sensor_type;location;lat;lon;timestamp;P1;durP1;ratioP1;P2;durP2;ratioP2
18681;SDS011;9471;51.168;4.154;2022-08-06T00:00:59;5.07;;;1.27;;
18681;SDS011;9471;51.168;4.154;2022-08-06T00:03:26;8.65;;;1.60;;
18681;SDS011;9471;51.168;4.154;2022-08-06T00:05:53;9.32;;;1.88;;
18681;SDS011;9471;51.168;4.154;2022-08-06T00:08:20;7.72;;;1.30;;
18681;SDS011;9471;51.168;4.154;2022-08-06T00:10:48;8.63;;;1.40;;
18681;SDS011;9471;51.168;4.154;2022-08-06T00:13:16;6.63;;;1.63;;
18681;SDS011;9471;51.168;4.154;2022-08-06T00:15:44;7.85;;;1.55;;
18681;SDS011;9471;51.168;4.154;2022-08-06T00:18:11;6.55;;;1.55;;
18681;SDS011;9471;51.168;4.154;2022-08-06T00:20:38;7.85;;;1.55;;
18681;SDS011;9471;51.168;4.154;2022-08-06T00:23:05;9.10;;;1.80;;
18681;SDS011;9471;51.168;4.154;2022-08-06T00:25:32;7.80;;;1.60;;
18681;SDS011;9471;51.168;4.154;2022-08-06T00:28:00;5.95;;;1.55;;
18681;SDS011;9471;51.168;4.154;2022-08-06T00:30:27;4.00;;;1.67;;
18681;SDS011;9471;51.168;4.154;2022-08-06T00:32:54;8.35;;;1.67;;
18681;SDS011;9471;51.168;4.154;2022-08-06T00:35:22;5.93;;;1.60;;
18681;SDS011;9471;51.168;4.154;2022-08-06T00:37:49;6.25;;;1.23;;
18681;SDS011;9471;51.168;4.154;2022-08-06T00:40:17;3.90;;;1.38;;
18681;SDS011;9471;51.168;4.154;2022-08-06T00:42:46;11.02;;;1.70;;
18681;SDS011;9471;51.168;4.154;2022-08-06T00:45:14;7.68;;;1.25;;
18681;SDS011;9471;51.168;4.154;2022-08-06T00:47:42;7.38;;;1.65;;
18681;SDS011;9471;51.168;4.154;2022-08-06T00:50:09;8.45;;;1.92;;
18681;SDS011;9471;51.168;4.154;2022-08-06T00:52:36;5.95;;;1.50;;
18681;SDS011;9471;51.168;4.154;2022-08-06T00:55:03;5.90;;;1.33;;
18681;SDS011;9471;51.168;4.154;2022-08-06T00:57:31;10.20;;;1.63;;
18681;SDS011;9471;51.168;4.154;2022-08-06T00:59:58;9.65;;;1.50;;
18681;SDS011;9471;51.168;4.154;2022-08-06T01:02:26;7.57;;;1.70;;
18681;SDS011;9471;51.168;4.154;2022-08-06T01:04:53;6.28;;;1.30;;
18681;SDS011;9471;51.168;4.154;2022-08-06T01:07:20;6.07;;;1.50;;
18681;SDS011;9471;51.168;4.154;2022-08-06T01:09:47;10.35;;;1.40;;
18681;SDS011;9471;51.168;4.154;2022-08-06T01:12:15;8.15;;;1.38;;
18681;SDS011;9471;51.168;4.154;2022-08-06T01:14:42;7.22;;;1.80;;
18681;SDS011;9471;51.168;4.154;2022-08-06T01:17:12;6.22;;;1.70;;
18681;SDS011;9471;51.168;4.154;2022-08-06T01:19:49;5.45;;;1.52;;
18681;SDS011;9471;51.168;4.154;2022-08-06T01:22:35;8.93;;;1.52;;
18681;SDS011;9471;51.168;4.154;2022-08-06T01:25:31;6.78;;;1.48;;
18681;SDS011;9471;51.168;4.154;2022-08-06T01:28:15;5.45;;;1.60;;
18681;SDS011;9471;51.168;4.154;2022-08-06T01:30:48;7.22;;;1.45;;
18681;SDS011;9471;51.168;4.154;2022-08-06T01:33:20;6.45;;;1.20;;
18681;SDS011;9471;51.168;4.154;2022-08-06T01:35:53;9.77;;;1.90;;
18681;SDS011;9471;51.168;4.154;2022-08-06T01:38:23;8.95;;;1.70;;
18681;SDS011;9471;51.168;4.154;2022-08-06T01:40:52;6.28;;;1.60;;
18681;SDS011;9471;51.168;4.154;2022-08-06T01:43:24;5.13;;;1.70;;
18681;SDS011;9471;51.168;4.154;2022-08-06T01:45:53;5.65;;;1.48;;
18681;SDS011;9471;51.168;4.154;2022-08-06T01:48:23;8.00;;;1.33;;
18681;SDS011;9471;51.168;4.154;2022-08-06T01:50:52;6.50;;;1.67;;
18681;SDS011;9471;51.168;4.154;2022-08-06T01:53:25;8.25;;;1.60;;
18681;SDS011;9471;51.168;4.154;2022-08-06T01:55:56;10.10;;;1.90;;
18681;SDS011;9471;51.168;4.154;2022-08-06T01:58:28;8.23;;;1.65;;
18681;SDS011;9471;51.168;4.154;2022-08-06T02:00:59;10.02;;;1.80;;
18681;SDS011;9471;51.168;4.154;2022-08-06T02:03:30;6.72;;;1.70;;
18681;SDS011;9471;51.168;4.154;2022-08-06T02:05:59;6.38;;;1.45;;
18681;SDS011;9471;51.168;4.154;2022-08-06T02:08:29;7.80;;;1.92;;
18681;SDS011;9471;51.168;4.154;2022-08-06T02:11:00;6.50;;;1.98;;
18681;SDS011;9471;51.168;4.154;2022-08-06T02:13:31;9.00;;;1.77;;
18681;SDS011;9471;51.168;4.154;2022-08-06T02:16:02;8.27;;;1.48;;
18681;SDS011;9471;51.168;4.154;2022-08-06T02:18:32;7.32;;;1.42;;
18681;SDS011;9471;51.168;4.154;2022-08-06T02:21:02;6.85;;;1.52;;
18681;SDS011;9471;51.168;4.154;2022-08-06T02:23:32;7.20;;;1.55;;
18681;SDS011;9471;51.168;4.154;2022-08-06T02:26:00;8.43;;;1.67;;
18681;SDS011;9471;51.168;4.154;2022-08-06T02:28:29;7.47;;;1.83;;
18681;SDS011;9471;51.168;4.154;2022-08-06T02:30:59;6.82;;;1.48;;
18681;SDS011;9471;51.168;4.154;2022-08-06T02:33:26;3.80;;;1.42;;
18681;SDS011;9471;51.168;4.154;2022-08-06T02:35:54;9.07;;;1.88;;
18681;SDS011;9471;51.168;4.154;2022-08-06T02:38:27;6.75;;;1.52;;
18681;SDS011;9471;51.168;4.154;2022-08-06T02:41:00;5.00;;;1.58;;
18681;SDS011;9471;51.168;4.154;2022-08-06T02:43:37;9.70;;;2.13;;
18681;SDS011;9471;51.168;4.154;2022-08-06T02:46:11;10.85;;;1.90;;
18681;SDS011;9471;51.168;4.154;2022-08-06T02:48:42;5.72;;;2.17;;
18681;SDS011;9471;51.168;4.154;2022-08-06T02:51:15;13.15;;;2.40;;
18681;SDS011;9471;51.168;4.154;2022-08-06T02:53:55;7.07;;;2.33;;
18681;SDS011;9471;51.168;4.154;2022-08-06T02:56:28;5.85;;;1.90;;
18681;SDS011;9471;51.168;4.154;2022-08-06T02:58:59;8.13;;;2.42;;
18681;SDS011;9471;51.168;4.154;2022-08-06T03:01:29;8.73;;;2.42;;
18681;SDS011;9471;51.168;4.154;2022-08-06T03:03:59;8.35;;;2.88;;
18681;SDS011;9471;51.168;4.154;2022-08-06T03:06:29;10.50;;;2.60;;
18681;SDS011;9471;51.168;4.154;2022-08-06T03:08:59;10.73;;;2.50;;
18681;SDS011;9471;51.168;4.154;2022-08-06T03:11:28;7.35;;;2.58;;
18681;SDS011;9471;51.168;4.154;2022-08-06T03:14:00;10.25;;;2.72;;
18681;SDS011;9471;51.168;4.154;2022-08-06T03:16:29;12.05;;;3.15;;
18681;SDS011;9471;51.168;4.154;2022-08-06T03:19:01;14.30;;;3.25;;
18681;SDS011;9471;51.168;4.154;2022-08-06T03:21:28;7.65;;;2.75;;
18681;SDS011;9471;51.168;4.154;2022-08-06T03:23:57;9.20;;;2.78;;
18681;SDS011;9471;51.168;4.154;2022-08-06T03:26:26;9.98;;;2.40;;
18681;SDS011;9471;51.168;4.154;2022-08-06T03:28:54;10.10;;;2.85;;
18681;SDS011;9471;51.168;4.154;2022-08-06T03:31:24;8.40;;;2.63;;
18681;SDS011;9471;51.168;4.154;2022-08-06T03:33:53;9.65;;;2.75;;
18681;SDS011;9471;51.168;4.154;2022-08-06T03:36:21;8.38;;;2.40;;
18681;SDS011;9471;51.168;4.154;2022-08-06T03:38:50;11.05;;;2.50;;
18681;SDS011;9471;51.168;4.154;2022-08-06T03:41:20;11.65;;;3.20;;
18681;SDS011;9471;51.168;4.154;2022-08-06T03:43:47;8.93;;;2.83;;
18681;SDS011;9471;51.168;4.154;2022-08-06T03:46:15;11.02;;;3.42;;
18681;SDS011;9471;51.168;4.154;2022-08-06T03:48:48;9.30;;;3.20;;
18681;SDS011;9471;51.168;4.154;2022-08-06T03:51:19;9.13;;;3.13;;
18681;SDS011;9471;51.168;4.154;2022-08-06T03:53:48;8.75;;;3.15;;
18681;SDS011;9471;51.168;4.154;2022-08-06T03:56:19;11.60;;;3.45;;
18681;SDS011;9471;51.168;4.154;2022-08-06T03:58:49;12.50;;;3.17;;
18681;SDS011;9471;51.168;4.154;2022-08-06T04:01:20;13.88;;;3.28;;
18681;SDS011;9471;51.168;4.154;2022-08-06T04:03:50;16.05;;;5.88;;
18681;SDS011;9471;51.168;4.154;2022-08-06T04:06:19;10.13;;;2.88;;
18681;SDS011;9471;51.168;4.154;2022-08-06T04:08:48;8.02;;;3.20;;
18681;SDS011;9471;51.168;4.154;2022-08-06T04:11:16;9.25;;;2.63;;
18681;SDS011;9471;51.168;4.154;2022-08-06T04:13:45;9.73;;;3.13;;
18681;SDS011;9471;51.168;4.154;2022-08-06T04:16:12;7.95;;;2.65;;
18681;SDS011;9471;51.168;4.154;2022-08-06T04:18:41;10.23;;;3.13;;
18681;SDS011;9471;51.168;4.154;2022-08-06T04:21:11;12.77;;;3.58;;
18681;SDS011;9471;51.168;4.154;2022-08-06T04:23:42;10.13;;;2.70;;
18681;SDS011;9471;51.168;4.154;2022-08-06T04:26:09;8.85;;;2.85;;
18681;SDS011;9471;51.168;4.154;2022-08-06T04:28:40;10.95;;;2.85;;
18681;SDS011;9471;51.168;4.154;2022-08-06T04:31:08;8.52;;;2.90;;
18681;SDS011;9471;51.168;4.154;2022-08-06T04:33:36;10.68;;;3.05;;
18681;SDS011;9471;51.168;4.154;2022-08-06T04:36:05;9.25;;;2.70;;
18681;SDS011;9471;51.168;4.154;2022-08-06T04:38:34;11.48;;;2.97;;
18681;SDS011;9471;51.168;4.154;2022-08-06T04:41:01;9.77;;;2.70;;
18681;SDS011;9471;51.168;4.154;2022-08-06T04:43:29;15.57;;;3.13;;
18681;SDS011;9471;51.168;4.154;2022-08-06T04:45:56;9.43;;;2.67;;
18681;SDS011;9471;51.168;4.154;2022-08-06T04:48:24;7.13;;;2.65;;
18681;SDS011;9471;51.168;4.154;2022-08-06T04:50:51;7.15;;;2.42;;
18681;SDS011;9471;51.168;4.154;2022-08-06T04:53:19;7.78;;;2.60;;
18681;SDS011;9471;51.168;4.154;2022-08-06T04:55:47;11.82;;;2.63;;
18681;SDS011;9471;51.168;4.154;2022-08-06T04:58:15;8.30;;;2.85;;
18681;SDS011;9471;51.168;4.154;2022-08-06T05:00:43;10.88;;;2.90;;
18681;SDS011;9471;51.168;4.154;2022-08-06T05:03:12;11.07;;;2.58;;
18681;SDS011;9471;51.168;4.154;2022-08-06T05:05:41;11.70;;;2.65;;
18681;SDS011;9471;51.168;4.154;2022-08-06T05:08:13;9.60;;;2.38;;
18681;SDS011;9471;51.168;4.154;2022-08-06T05:10:42;11.23;;;2.40;;
18681;SDS011;9471;51.168;4.154;2022-08-06T05:13:14;9.20;;;2.05;;
18681;SDS011;9471;51.168;4.154;2022-08-06T05:15:45;9.10;;;2.40;;
18681;SDS011;9471;51.168;4.154;2022-08-06T05:18:20;12.05;;;2.42;;
18681;SDS011;9471;51.168;4.154;2022-08-06T05:20:51;7.60;;;2.00;;
18681;SDS011;9471;51.168;4.154;2022-08-06T05:23:20;7.57;;;2.22;;
18681;SDS011;9471;51.168;4.154;2022-08-06T05:25:50;6.07;;;2.15;;
18681;SDS011;9471;51.168;4.154;2022-08-06T05:28:19;9.73;;;2.50;;
18681;SDS011;9471;51.168;4.154;2022-08-06T05:30:47;10.63;;;2.40;;
18681;SDS011;9471;51.168;4.154;2022-08-06T05:33:22;7.18;;;2.22;;
18681;SDS011;9471;51.168;4.154;2022-08-06T05:35:50;9.98;;;2.40;;
18681;SDS011;9471;51.168;4.154;2022-08-06T05:38:17;10.68;;;2.50;;
18681;SDS011;9471;51.168;4.154;2022-08-06T05:40:44;7.75;;;2.10;;
18681;SDS011;9471;51.168;4.154;2022-08-06T05:43:11;9.25;;;2.40;;
18681;SDS011;9471;51.168;4.154;2022-08-06T05:45:39;10.27;;;2.47;;
18681;SDS011;9471;51.168;4.154;2022-08-06T05:48:08;11.35;;;2.58;;
18681;SDS011;9471;51.168;4.154;2022-08-06T05:50:39;13.85;;;2.55;;
18681;SDS011;9471;51.168;4.154;2022-08-06T05:53:10;11.65;;;2.50;;
18681;SDS011;9471;51.168;4.154;2022-08-06T05:55:43;9.23;;;2.30;;
18681;SDS011;9471;51.168;4.154;2022-08-06T05:58:17;9.05;;;2.10;;
18681;SDS011;9471;51.168;4.154;2022-08-06T06:00:49;10.15;;;2.13;;
18681;SDS011;9471;51.168;4.154;2022-08-06T06:03:18;11.75;;;2.20;;
18681;SDS011;9471;51.168;4.154;2022-08-06T06:05:47;11.85;;;3.33;;
18681;SDS011;9471;51.168;4.154;2022-08-06T06:08:15;16.10;;;2.90;;
18681;SDS011;9471;51.168;4.154;2022-08-06T06:10:43;7.63;;;2.10;;
18681;SDS011;9471;51.168;4.154;2022-08-06T06:13:11;14.43;;;2.40;;
18681;SDS011;9471;51.168;4.154;2022-08-06T06:15:41;7.75;;;2.50;;
18681;SDS011;9471;51.168;4.154;2022-08-06T06:18:18;12.63;;;2.25;;
18681;SDS011;9471;51.168;4.154;2022-08-06T06:20:56;12.27;;;2.10;;
18681;SDS011;9471;51.168;4.154;2022-08-06T06:23:29;10.50;;;2.22;;
18681;SDS011;9471;51.168;4.154;2022-08-06T06:26:03;8.15;;;2.15;;
18681;SDS011;9471;51.168;4.154;2022-08-06T06:28:43;8.63;;;1.80;;
18681;SDS011;9471;51.168;4.154;2022-08-06T06:31:22;7.57;;;2.13;;
18681;SDS011;9471;51.168;4.154;2022-08-06T06:33:59;8.50;;;2.10;;
18681;SDS011;9471;51.168;4.154;2022-08-06T06:36:32;9.35;;;2.45;;
18681;SDS011;9471;51.168;4.154;2022-08-06T06:39:06;10.55;;;2.10;;
18681;SDS011;9471;51.168;4.154;2022-08-06T06:41:39;8.57;;;1.80;;
18681;SDS011;9471;51.168;4.154;2022-08-06T06:44:11;10.45;;;1.60;;
18681;SDS011;9471;51.168;4.154;2022-08-06T06:46:45;5.75;;;1.90;;
18681;SDS011;9471;51.168;4.154;2022-08-06T06:49:23;8.32;;;1.40;;
18681;SDS011;9471;51.168;4.154;2022-08-06T06:51:57;8.18;;;1.35;;
18681;SDS011;9471;51.168;4.154;2022-08-06T06:54:31;8.73;;;1.70;;
18681;SDS011;9471;51.168;4.154;2022-08-06T06:57:01;7.70;;;1.73;;
18681;SDS011;9471;51.168;4.154;2022-08-06T06:59:32;7.85;;;1.67;;
18681;SDS011;9471;51.168;4.154;2022-08-06T07:02:02;8.07;;;1.77;;
18681;SDS011;9471;51.168;4.154;2022-08-06T07:04:32;5.80;;;1.40;;
18681;SDS011;9471;51.168;4.154;2022-08-06T07:07:02;6.10;;;1.40;;
18681;SDS011;9471;51.168;4.154;2022-08-06T07:09:30;7.55;;;1.50;;
18681;SDS011;9471;51.168;4.154;2022-08-06T07:11:59;11.45;;;1.40;;
18681;SDS011;9471;51.168;4.154;2022-08-06T07:14:28;6.88;;;1.67;;
18681;SDS011;9471;51.168;4.154;2022-08-06T07:16:56;7.00;;;1.48;;
18681;SDS011;9471;51.168;4.154;2022-08-06T07:19:25;5.47;;;1.38;;
18681;SDS011;9471;51.168;4.154;2022-08-06T07:21:54;8.00;;;1.20;;
18681;SDS011;9471;51.168;4.154;2022-08-06T07:24:23;6.13;;;1.20;;
18681;SDS011;9471;51.168;4.154;2022-08-06T07:26:51;6.57;;;1.10;;
18681;SDS011;9471;51.168;4.154;2022-08-06T07:29:20;6.43;;;1.08;;
18681;SDS011;9471;51.168;4.154;2022-08-06T07:31:48;10.68;;;1.48;;
18681;SDS011;9471;51.168;4.154;2022-08-06T07:34:16;7.30;;;1.85;;
18681;SDS011;9471;51.168;4.154;2022-08-06T07:36:45;8.43;;;1.58;;
18681;SDS011;9471;51.168;4.154;2022-08-06T07:42:05;5.80;;;1.48;;
18681;SDS011;9471;51.168;4.154;2022-08-06T07:44:34;5.00;;;1.40;;
18681;SDS011;9471;51.168;4.154;2022-08-06T07:47:04;6.05;;;1.50;;
18681;SDS011;9471;51.168;4.154;2022-08-06T07:49:35;6.15;;;1.40;;
18681;SDS011;9471;51.168;4.154;2022-08-06T07:52:05;5.68;;;1.40;;
18681;SDS011;9471;51.168;4.154;2022-08-06T07:54:36;11.57;;;1.85;;
18681;SDS011;9471;51.168;4.154;2022-08-06T07:57:04;7.47;;;1.80;;
18681;SDS011;9471;51.168;4.154;2022-08-06T07:59:32;10.23;;;1.58;;
18681;SDS011;9471;51.168;4.154;2022-08-06T08:02:00;6.47;;;1.30;;
18681;SDS011;9471;51.168;4.154;2022-08-06T08:04:29;6.53;;;1.33;;
18681;SDS011;9471;51.168;4.154;2022-08-06T08:07:14;6.50;;;1.00;;
18681;SDS011;9471;51.168;4.154;2022-08-06T08:09:43;9.80;;;1.35;;
18681;SDS011;9471;51.168;4.154;2022-08-06T08:12:13;4.63;;;1.27;;
18681;SDS011;9471;51.168;4.154;2022-08-06T08:14:42;4.13;;;1.23;;
18681;SDS011;9471;51.168;4.154;2022-08-06T08:17:10;6.60;;;1.15;;
18681;SDS011;9471;51.168;4.154;2022-08-06T08:19:37;6.13;;;1.52;;
18681;SDS011;9471;51.168;4.154;2022-08-06T08:22:05;7.45;;;1.40;;
18681;SDS011;9471;51.168;4.154;2022-08-06T08:24:35;6.80;;;1.20;;
18681;SDS011;9471;51.168;4.154;2022-08-06T08:27:05;6.07;;;1.30;;
18681;SDS011;9471;51.168;4.154;2022-08-06T08:29:34;8.35;;;1.83;;
18681;SDS011;9471;51.168;4.154;2022-08-06T08:32:02;6.10;;;1.00;;
18681;SDS011;9471;51.168;4.154;2022-08-06T08:34:29;3.33;;;1.00;;
18681;SDS011;9471;51.168;4.154;2022-08-06T08:36:57;7.10;;;1.10;;
18681;SDS011;9471;51.168;4.154;2022-08-06T08:39:25;4.57;;;0.88;;
18681;SDS011;9471;51.168;4.154;2022-08-06T08:41:55;4.95;;;0.93;;
18681;SDS011;9471;51.168;4.154;2022-08-06T08:44:33;4.63;;;0.85;;
18681;SDS011;9471;51.168;4.154;2022-08-06T08:47:01;2.55;;;1.00;;
18681;SDS011;9471;51.168;4.154;2022-08-06T08:49:32;5.57;;;0.73;;
18681;SDS011;9471;51.168;4.154;2022-08-06T08:52:04;5.63;;;1.02;;
18681;SDS011;9471;51.168;4.154;2022-08-06T08:54:34;2.22;;;0.80;;
18681;SDS011;9471;51.168;4.154;2022-08-06T08:57:05;3.80;;;0.88;;
18681;SDS011;9471;51.168;4.154;2022-08-06T08:59:36;8.27;;;1.10;;
18681;SDS011;9471;51.168;4.154;2022-08-06T09:02:05;2.88;;;0.80;;
18681;SDS011;9471;51.168;4.154;2022-08-06T09:04:35;3.65;;;0.88;;
18681;SDS011;9471;51.168;4.154;2022-08-06T09:07:03;6.50;;;0.90;;
18681;SDS011;9471;51.168;4.154;2022-08-06T09:09:31;5.90;;;1.25;;
18681;SDS011;9471;51.168;4.154;2022-08-06T09:12:00;6.25;;;1.25;;
18681;SDS011;9471;51.168;4.154;2022-08-06T09:14:27;3.95;;;0.88;;
18681;SDS011;9471;51.168;4.154;2022-08-06T09:16:56;7.10;;;1.08;;
18681;SDS011;9471;51.168;4.154;2022-08-06T09:19:24;3.97;;;1.10;;
18681;SDS011;9471;51.168;4.154;2022-08-06T09:21:54;7.28;;;1.48;;
18681;SDS011;9471;51.168;4.154;2022-08-06T09:24:21;4.38;;;0.98;;
18681;SDS011;9471;51.168;4.154;2022-08-06T09:27:00;4.63;;;0.90;;
18681;SDS011;9471;51.168;4.154;2022-08-06T09:29:28;3.33;;;0.80;;
18681;SDS011;9471;51.168;4.154;2022-08-06T09:31:57;2.42;;;0.82;;
18681;SDS011;9471;51.168;4.154;2022-08-06T09:34:31;4.80;;;0.90;;
18681;SDS011;9471;51.168;4.154;2022-08-06T09:36:59;3.92;;;0.82;;
18681;SDS011;9471;51.168;4.154;2022-08-06T09:39:30;5.75;;;1.20;;
18681;SDS011;9471;51.168;4.154;2022-08-06T09:42:04;4.88;;;1.20;;
18681;SDS011;9471;51.168;4.154;2022-08-06T09:44:32;5.65;;;1.10;;
18681;SDS011;9471;51.168;4.154;2022-08-06T09:47:01;5.20;;;0.80;;
18681;SDS011;9471;51.168;4.154;2022-08-06T09:49:42;4.43;;;0.80;;
18681;SDS011;9471;51.168;4.154;2022-08-06T09:52:11;5.20;;;0.80;;
18681;SDS011;9471;51.168;4.154;2022-08-06T09:54:40;5.28;;;0.95;;
18681;SDS011;9471;51.168;4.154;2022-08-06T09:57:07;3.38;;;1.05;;
18681;SDS011;9471;51.168;4.154;2022-08-06T09:59:41;3.25;;;0.88;;
18681;SDS011;9471;51.168;4.154;2022-08-06T10:02:13;3.15;;;0.80;;
18681;SDS011;9471;51.168;4.154;2022-08-06T10:04:42;2.28;;;0.70;;
18681;SDS011;9471;51.168;4.154;2022-08-06T10:07:10;3.00;;;0.70;;
18681;SDS011;9471;51.168;4.154;2022-08-06T10:09:50;3.45;;;0.60;;
18681;SDS011;9471;51.168;4.154;2022-08-06T10:12:17;5.82;;;0.90;;
18681;SDS011;9471;51.168;4.154;2022-08-06T10:14:45;7.00;;;1.10;;
18681;SDS011;9471;51.168;4.154;2022-08-06T10:17:15;1.85;;;0.70;;
18681;SDS011;9471;51.168;4.154;2022-08-06T10:19:43;6.70;;;0.90;;
18681;SDS011;9471;51.168;4.154;2022-08-06T10:22:13;4.55;;;1.30;;
18681;SDS011;9471;51.168;4.154;2022-08-06T10:24:42;3.33;;;1.10;;
18681;SDS011;9471;51.168;4.154;2022-08-06T10:27:10;6.65;;;1.00;;
18681;SDS011;9471;51.168;4.154;2022-08-06T10:29:50;5.97;;;0.80;;
18681;SDS011;9471;51.168;4.154;2022-08-06T10:32:22;2.65;;;0.82;;
18681;SDS011;9471;51.168;4.154;2022-08-06T10:34:52;3.55;;;0.80;;
18681;SDS011;9471;51.168;4.154;2022-08-06T10:37:20;2.42;;;0.77;;
18681;SDS011;9471;51.168;4.154;2022-08-06T10:39:49;4.13;;;0.80;;
18681;SDS011;9471;51.168;4.154;2022-08-06T10:42:22;3.75;;;0.80;;
18681;SDS011;9471;51.168;4.154;2022-08-06T10:44:50;6.13;;;0.95;;
18681;SDS011;9471;51.168;4.154;2022-08-06T10:47:18;6.38;;;0.85;;
18681;SDS011;9471;51.168;4.154;2022-08-06T10:49:47;5.38;;;0.90;;
18681;SDS011;9471;51.168;4.154;2022-08-06T10:52:14;4.05;;;0.80;;
18681;SDS011;9471;51.168;4.154;2022-08-06T10:54:41;3.67;;;0.90;;
18681;SDS011;9471;51.168;4.154;2022-08-06T10:57:08;7.38;;;1.02;;
18681;SDS011;9471;51.168;4.154;2022-08-06T10:59:37;3.33;;;0.70;;
18681;SDS011;9471;51.168;4.154;2022-08-06T11:02:08;4.90;;;0.70;;
18681;SDS011;9471;51.168;4.154;2022-08-06T11:04:42;3.65;;;0.90;;
18681;SDS011;9471;51.168;4.154;2022-08-06T11:10:33;3.85;;;0.65;;
18681;SDS011;9471;51.168;4.154;2022-08-06T11:13:13;7.07;;;1.10;;
18681;SDS011;9471;51.168;4.154;2022-08-06T11:15:45;5.05;;;0.88;;
18681;SDS011;9471;51.168;4.154;2022-08-06T11:18:13;3.75;;;0.95;;
18681;SDS011;9471;51.168;4.154;2022-08-06T11:20:41;5.45;;;1.00;;
18681;SDS011;9471;51.168;4.154;2022-08-06T11:26:03;4.63;;;0.90;;
18681;SDS011;9471;51.168;4.154;2022-08-06T11:31:35;4.28;;;0.85;;
18681;SDS011;9471;51.168;4.154;2022-08-06T11:34:05;2.88;;;1.00;;
18681;SDS011;9471;51.168;4.154;2022-08-06T11:36:48;2.08;;;0.90;;
18681;SDS011;9471;51.168;4.154;2022-08-06T11:39:20;6.57;;;1.10;;
18681;SDS011;9471;51.168;4.154;2022-08-06T11:41:49;2.65;;;1.00;;
18681;SDS011;9471;51.168;4.154;2022-08-06T11:44:20;4.80;;;1.05;;
18681;SDS011;9471;51.168;4.154;2022-08-06T11:46:49;4.68;;;1.17;;
18681;SDS011;9471;51.168;4.154;2022-08-06T11:49:36;4.85;;;1.02;;
18681;SDS011;9471;51.168;4.154;2022-08-06T11:52:07;6.43;;;1.17;;
18681;SDS011;9471;51.168;4.154;2022-08-06T11:54:35;5.72;;;1.13;;
18681;SDS011;9471;51.168;4.154;2022-08-06T11:57:23;5.65;;;1.30;;
18681;SDS011;9471;51.168;4.154;2022-08-06T12:00:02;3.30;;;1.20;;
18681;SDS011;9471;51.168;4.154;2022-08-06T12:08:20;3.10;;;1.20;;
18681;SDS011;9471;51.168;4.154;2022-08-06T12:13:54;5.63;;;1.60;;
18681;SDS011;9471;51.168;4.154;2022-08-06T12:16:25;2.15;;;1.08;;
18681;SDS011;9471;51.168;4.154;2022-08-06T12:18:53;6.88;;;1.30;;
18681;SDS011;9471;51.168;4.154;2022-08-06T12:21:21;8.60;;;2.15;;
18681;SDS011;9471;51.168;4.154;2022-08-06T12:23:51;7.50;;;1.60;;
18681;SDS011;9471;51.168;4.154;2022-08-06T12:26:20;8.40;;;1.98;;
18681;SDS011;9471;51.168;4.154;2022-08-06T12:28:48;6.82;;;1.70;;
18681;SDS011;9471;51.168;4.154;2022-08-06T12:31:29;7.15;;;1.55;;
18681;SDS011;9471;51.168;4.154;2022-08-06T12:33:57;5.72;;;1.58;;
18681;SDS011;9471;51.168;4.154;2022-08-06T12:36:26;7.13;;;1.77;;
18681;SDS011;9471;51.168;4.154;2022-08-06T12:38:56;7.32;;;2.33;;
18681;SDS011;9471;51.168;4.154;2022-08-06T12:41:31;7.03;;;1.90;;
18681;SDS011;9471;51.168;4.154;2022-08-06T12:44:07;5.22;;;1.67;;
18681;SDS011;9471;51.168;4.154;2022-08-06T12:46:38;7.00;;;1.63;;
18681;SDS011;9471;51.168;4.154;2022-08-06T12:49:05;6.95;;;1.63;;
18681;SDS011;9471;51.168;4.154;2022-08-06T12:51:33;4.90;;;1.67;;
18681;SDS011;9471;51.168;4.154;2022-08-06T12:54:03;5.65;;;1.48;;
18681;SDS011;9471;51.168;4.154;2022-08-06T12:56:32;5.53;;;1.77;;
18681;SDS011;9471;51.168;4.154;2022-08-06T12:59:04;5.43;;;1.73;;
18681;SDS011;9471;51.168;4.154;2022-08-06T13:01:33;5.78;;;1.73;;
18681;SDS011;9471;51.168;4.154;2022-08-06T13:04:03;6.95;;;1.88;;
18681;SDS011;9471;51.168;4.154;2022-08-06T13:06:34;3.25;;;1.70;;
18681;SDS011;9471;51.168;4.154;2022-08-06T13:09:05;4.72;;;1.80;;
18681;SDS011;9471;51.168;4.154;2022-08-06T13:11:32;7.70;;;1.85;;
18681;SDS011;9471;51.168;4.154;2022-08-06T13:14:07;6.07;;;1.95;;
18681;SDS011;9471;51.168;4.154;2022-08-06T13:16:39;5.13;;;1.67;;
18681;SDS011;9471;51.168;4.154;2022-08-06T13:19:09;4.03;;;1.48;;
18681;SDS011;9471;51.168;4.154;2022-08-06T13:21:38;5.40;;;1.58;;
18681;SDS011;9471;51.168;4.154;2022-08-06T13:24:07;5.88;;;1.70;;
18681;SDS011;9471;51.168;4.154;2022-08-06T13:26:46;4.40;;;1.50;;
18681;SDS011;9471;51.168;4.154;2022-08-06T13:29:15;7.68;;;1.63;;
18681;SDS011;9471;51.168;4.154;2022-08-06T13:31:45;5.90;;;1.65;;
18681;SDS011;9471;51.168;4.154;2022-08-06T13:34:13;4.88;;;1.63;;
18681;SDS011;9471;51.168;4.154;2022-08-06T13:36:42;7.63;;;1.80;;
18681;SDS011;9471;51.168;4.154;2022-08-06T13:39:23;5.82;;;1.30;;
18681;SDS011;9471;51.168;4.154;2022-08-06T13:42:05;3.70;;;1.40;;
18681;SDS011;9471;51.168;4.154;2022-08-06T13:44:33;4.90;;;1.80;;
18681;SDS011;9471;51.168;4.154;2022-08-06T13:47:03;6.28;;;1.67;;
18681;SDS011;9471;51.168;4.154;2022-08-06T13:49:30;4.70;;;1.52;;
18681;SDS011;9471;51.168;4.154;2022-08-06T13:51:57;2.95;;;1.35;;
18681;SDS011;9471;51.168;4.154;2022-08-06T13:54:26;4.75;;;1.63;;
18681;SDS011;9471;51.168;4.154;2022-08-06T13:56:53;4.65;;;1.50;;
18681;SDS011;9471;51.168;4.154;2022-08-06T13:59:23;4.03;;;1.30;;
18681;SDS011;9471;51.168;4.154;2022-08-06T14:01:52;5.78;;;1.38;;
18681;SDS011;9471;51.168;4.154;2022-08-06T14:04:19;4.22;;;1.30;;
18681;SDS011;9471;51.168;4.154;2022-08-06T14:06:48;6.57;;;1.35;;
18681;SDS011;9471;51.168;4.154;2022-08-06T14:09:17;3.65;;;0.98;;
18681;SDS011;9471;51.168;4.154;2022-08-06T14:11:47;5.18;;;1.52;;
18681;SDS011;9471;51.168;4.154;2022-08-06T14:14:17;4.43;;;1.23;;
18681;SDS011;9471;51.168;4.154;2022-08-06T14:16:44;4.05;;;1.30;;
18681;SDS011;9471;51.168;4.154;2022-08-06T14:19:11;6.05;;;1.35;;
18681;SDS011;9471;51.168;4.154;2022-08-06T14:21:41;4.18;;;1.17;;
18681;SDS011;9471;51.168;4.154;2022-08-06T14:24:08;5.95;;;1.42;;
18681;SDS011;9471;51.168;4.154;2022-08-06T14:26:35;7.10;;;1.50;;
18681;SDS011;9471;51.168;4.154;2022-08-06T14:29:04;2.58;;;1.20;;
18681;SDS011;9471;51.168;4.154;2022-08-06T14:31:31;5.53;;;1.23;;
18681;SDS011;9471;51.168;4.154;2022-08-06T14:33:58;4.47;;;0.93;;
18681;SDS011;9471;51.168;4.154;2022-08-06T14:36:25;4.30;;;1.20;;
18681;SDS011;9471;51.168;4.154;2022-08-06T14:38:52;5.38;;;1.27;;
18681;SDS011;9471;51.168;4.154;2022-08-06T14:41:19;3.33;;;1.00;;
18681;SDS011;9471;51.168;4.154;2022-08-06T14:44:06;3.67;;;1.00;;
18681;SDS011;9471;51.168;4.154;2022-08-06T14:46:51;3.25;;;1.05;;
18681;SDS011;9471;51.168;4.154;2022-08-06T14:49:18;6.50;;;1.15;;
18681;SDS011;9471;51.168;4.154;2022-08-06T14:51:45;3.80;;;1.23;;
18681;SDS011;9471;51.168;4.154;2022-08-06T14:54:12;5.05;;;1.13;;
18681;SDS011;9471;51.168;4.154;2022-08-06T14:56:40;5.70;;;1.33;;
18681;SDS011;9471;51.168;4.154;2022-08-06T14:59:09;2.05;;;1.25;;
18681;SDS011;9471;51.168;4.154;2022-08-06T15:01:36;5.43;;;0.95;;
18681;SDS011;9471;51.168;4.154;2022-08-06T15:04:03;6.13;;;1.23;;
18681;SDS011;9471;51.168;4.154;2022-08-06T15:06:30;4.85;;;1.38;;
18681;SDS011;9471;51.168;4.154;2022-08-06T15:08:57;5.43;;;0.90;;
18681;SDS011;9471;51.168;4.154;2022-08-06T15:11:24;6.57;;;1.20;;
18681;SDS011;9471;51.168;4.154;2022-08-06T15:13:51;3.05;;;1.00;;
18681;SDS011;9471;51.168;4.154;2022-08-06T15:16:19;3.33;;;1.00;;
18681;SDS011;9471;51.168;4.154;2022-08-06T15:18:46;6.85;;;1.20;;
18681;SDS011;9471;51.168;4.154;2022-08-06T15:21:13;4.03;;;1.00;;
18681;SDS011;9471;51.168;4.154;2022-08-06T15:23:40;4.22;;;1.25;;
18681;SDS011;9471;51.168;4.154;2022-08-06T15:26:09;3.20;;;0.90;;
18681;SDS011;9471;51.168;4.154;2022-08-06T15:28:36;5.97;;;1.30;;
18681;SDS011;9471;51.168;4.154;2022-08-06T15:31:04;3.28;;;1.00;;
18681;SDS011;9471;51.168;4.154;2022-08-06T15:33:33;4.53;;;1.27;;
18681;SDS011;9471;51.168;4.154;2022-08-06T15:36:00;5.13;;;1.23;;
18681;SDS011;9471;51.168;4.154;2022-08-06T15:38:27;3.83;;;0.93;;